sensor_id;sensor_type;location;lat;lon;timestamp;P1;durP1;ratioP1;P2;durP2;ratioP2
42094;SDS011;27753;55.724;37.612;2024-01-30T00:00:05;11.95;;;8.98;;
42094;SDS011;27753;55.724;37.612;2024-01-30T00:02:32;13.68;;;8.45;;
42094;SDS011;27753;55.724;37.612;2024-01-30T00:04:58;13.52;;;9.73;;
42094;SDS011;27753;55.724;37.612;2024-01-30T00:07:23;12.85;;;9.13;;
42094;SDS011;27753;55.724;37.612;2024-01-30T00:09:49;20.92;;;10.93;;
42094;SDS011;27753;55.724;37.612;2024-01-30T00:12:15;15.23;;;9.20;;
42094;SDS011;27753;55.724;37.612;2024-01-30T00:14:42;16.17;;;10.32;;
42094;SDS011;27753;55.724;37.612;2024-01-30T00:17:11;15.02;;;9.38;;
42094;SDS011;27753;55.724;37.612;2024-01-30T00:19:36;14.13;;;9.85;;
42094;SDS011;27753;55.724;37.612;2024-01-30T00:22:02;15.15;;;10.60;;
42094;SDS011;27753;55.724;37.612;2024-01-30T00:24:28;13.85;;;9.80;;
42094;SDS011;27753;55.724;37.612;2024-01-30T00:26:54;13.32;;;10.30;;
42094;SDS011;27753;55.724;37.612;2024-01-30T00:29:20;11.10;;;8.70;;
42094;SDS011;27753;55.724;37.612;2024-01-30T00:34:13;9.68;;;5.70;;
42094;SDS011;27753;55.724;37.612;2024-01-30T00:36:39;13.90;;;9.82;;
42094;SDS011;27753;55.724;37.612;2024-01-30T00:39:05;13.73;;;8.90;;
42094;SDS011;27753;55.724;37.612;2024-01-30T00:41:34;11.80;;;9.32;;
42094;SDS011;27753;55.724;37.612;2024-01-30T00:44:00;13.60;;;10.75;;
42094;SDS011;27753;55.724;37.612;2024-01-30T00:46:25;13.77;;;9.40;;
42094;SDS011;27753;55.724;37.612;2024-01-30T00:48:51;16.00;;;10.63;;
42094;SDS011;27753;55.724;37.612;2024-01-30T00:51:17;13.45;;;10.13;;
42094;SDS011;27753;55.724;37.612;2024-01-30T00:53:43;11.13;;;7.72;;
42094;SDS011;27753;55.724;37.612;2024-01-30T00:56:10;12.90;;;8.63;;
42094;SDS011;27753;55.724;37.612;2024-01-30T00:58:35;14.75;;;9.27;;
42094;SDS011;27753;55.724;37.612;2024-01-30T01:01:01;12.63;;;8.68;;
42094;SDS011;27753;55.724;37.612;2024-01-30T01:03:27;12.27;;;8.48;;
42094;SDS011;27753;55.724;37.612;2024-01-30T01:05:53;16.30;;;9.48;;
42094;SDS011;27753;55.724;37.612;2024-01-30T01:08:19;15.68;;;8.82;;
42094;SDS011;27753;55.724;37.612;2024-01-30T01:10:45;11.80;;;9.00;;
42094;SDS011;27753;55.724;37.612;2024-01-30T01:13:11;13.70;;;8.82;;
42094;SDS011;27753;55.724;37.612;2024-01-30T01:15:37;13.85;;;9.13;;
42094;SDS011;27753;55.724;37.612;2024-01-30T01:18:03;16.55;;;8.73;;
42094;SDS011;27753;55.724;37.612;2024-01-30T01:20:29;12.70;;;7.72;;
42094;SDS011;27753;55.724;37.612;2024-01-30T01:22:55;12.38;;;8.88;;
42094;SDS011;27753;55.724;37.612;2024-01-30T01:25:20;14.55;;;8.02;;
42094;SDS011;27753;55.724;37.612;2024-01-30T01:27:46;10.85;;;9.05;;
42094;SDS011;27753;55.724;37.612;2024-01-30T01:30:16;11.70;;;7.75;;
42094;SDS011;27753;55.724;37.612;2024-01-30T01:32:50;12.95;;;7.88;;
42094;SDS011;27753;55.724;37.612;2024-01-30T01:35:23;10.10;;;7.40;;
42094;SDS011;27753;55.724;37.612;2024-01-30T01:37:52;15.15;;;9.10;;
42094;SDS011;27753;55.724;37.612;2024-01-30T01:40:26;14.38;;;7.53;;
42094;SDS011;27753;55.724;37.612;2024-01-30T01:42:53;14.23;;;9.65;;
42094;SDS011;27753;55.724;37.612;2024-01-30T01:45:20;12.80;;;8.80;;
42094;SDS011;27753;55.724;37.612;2024-01-30T01:47:55;12.17;;;7.93;;
42094;SDS011;27753;55.724;37.612;2024-01-30T01:50:21;17.00;;;10.30;;
42094;SDS011;27753;55.724;37.612;2024-01-30T01:52:48;15.00;;;9.27;;
42094;SDS011;27753;55.724;37.612;2024-01-30T01:55:15;13.20;;;9.45;;
42094;SDS011;27753;55.724;37.612;2024-01-30T01:57:43;15.18;;;9.50;;
42094;SDS011;27753;55.724;37.612;2024-01-30T02:00:10;17.03;;;10.77;;
42094;SDS011;27753;55.724;37.612;2024-01-30T02:02:37;14.77;;;9.90;;
42094;SDS011;27753;55.724;37.612;2024-01-30T02:05:04;14.73;;;9.57;;
42094;SDS011;27753;55.724;37.612;2024-01-30T02:07:31;14.93;;;9.57;;
42094;SDS011;27753;55.724;37.612;2024-01-30T02:09:57;17.77;;;10.00;;
42094;SDS011;27753;55.724;37.612;2024-01-30T02:12:22;11.70;;;8.82;;
42094;SDS011;27753;55.724;37.612;2024-01-30T02:14:48;14.10;;;9.20;;
42094;SDS011;27753;55.724;37.612;2024-01-30T02:17:15;14.70;;;10.13;;
42094;SDS011;27753;55.724;37.612;2024-01-30T02:19:42;14.57;;;10.13;;
42094;SDS011;27753;55.724;37.612;2024-01-30T02:22:08;12.68;;;8.30;;
42094;SDS011;27753;55.724;37.612;2024-01-30T02:24:35;15.55;;;10.07;;
42094;SDS011;27753;55.724;37.612;2024-01-30T02:27:01;13.85;;;9.68;;
42094;SDS011;27753;55.724;37.612;2024-01-30T02:29:26;13.13;;;9.15;;
42094;SDS011;27753;55.724;37.612;2024-01-30T02:31:55;10.75;;;7.65;;
42094;SDS011;27753;55.724;37.612;2024-01-30T02:34:21;13.63;;;8.35;;
42094;SDS011;27753;55.724;37.612;2024-01-30T02:36:47;11.18;;;6.70;;
42094;SDS011;27753;55.724;37.612;2024-01-30T02:39:15;13.75;;;9.20;;
42094;SDS011;27753;55.724;37.612;2024-01-30T02:41:41;15.20;;;8.55;;
42094;SDS011;27753;55.724;37.612;2024-01-30T02:44:07;14.43;;;8.90;;
42094;SDS011;27753;55.724;37.612;2024-01-30T02:46:33;12.48;;;7.65;;
42094;SDS011;27753;55.724;37.612;2024-01-30T02:48:58;13.27;;;8.50;;
42094;SDS011;27753;55.724;37.612;2024-01-30T02:51:24;12.65;;;9.05;;
42094;SDS011;27753;55.724;37.612;2024-01-30T02:53:50;16.77;;;10.05;;
42094;SDS011;27753;55.724;37.612;2024-01-30T02:56:16;12.80;;;9.70;;
42094;SDS011;27753;55.724;37.612;2024-01-30T02:58:42;13.05;;;7.45;;
42094;SDS011;27753;55.724;37.612;2024-01-30T03:01:08;13.77;;;9.35;;
42094;SDS011;27753;55.724;37.612;2024-01-30T03:03:34;11.15;;;6.47;;
42094;SDS011;27753;55.724;37.612;2024-01-30T03:06:01;18.63;;;10.35;;
42094;SDS011;27753;55.724;37.612;2024-01-30T03:08:27;13.30;;;8.65;;
42094;SDS011;27753;55.724;37.612;2024-01-30T03:10:53;14.30;;;8.93;;
42094;SDS011;27753;55.724;37.612;2024-01-30T03:13:19;13.38;;;9.02;;
42094;SDS011;27753;55.724;37.612;2024-01-30T03:15:45;13.82;;;9.68;;
42094;SDS011;27753;55.724;37.612;2024-01-30T03:18:11;16.60;;;9.50;;
42094;SDS011;27753;55.724;37.612;2024-01-30T03:20:36;15.43;;;8.32;;
42094;SDS011;27753;55.724;37.612;2024-01-30T03:23:02;14.13;;;7.75;;
42094;SDS011;27753;55.724;37.612;2024-01-30T03:25:28;13.38;;;9.55;;
42094;SDS011;27753;55.724;37.612;2024-01-30T03:27:54;17.02;;;8.98;;
42094;SDS011;27753;55.724;37.612;2024-01-30T03:30:24;12.98;;;9.32;;
42094;SDS011;27753;55.724;37.612;2024-01-30T03:32:55;12.90;;;8.68;;
42094;SDS011;27753;55.724;37.612;2024-01-30T03:35:21;13.45;;;9.27;;
42094;SDS011;27753;55.724;37.612;2024-01-30T03:37:47;12.52;;;8.00;;
42094;SDS011;27753;55.724;37.612;2024-01-30T03:40:13;16.52;;;9.60;;
42094;SDS011;27753;55.724;37.612;2024-01-30T03:42:40;13.77;;;9.13;;
42094;SDS011;27753;55.724;37.612;2024-01-30T03:45:06;13.85;;;9.95;;
42094;SDS011;27753;55.724;37.612;2024-01-30T03:47:32;14.27;;;8.57;;
42094;SDS011;27753;55.724;37.612;2024-01-30T03:49:58;11.02;;;7.57;;
42094;SDS011;27753;55.724;37.612;2024-01-30T03:52:24;11.70;;;7.85;;
42094;SDS011;27753;55.724;37.612;2024-01-30T03:54:50;12.38;;;8.85;;
42094;SDS011;27753;55.724;37.612;2024-01-30T03:57:15;15.40;;;9.95;;
42094;SDS011;27753;55.724;37.612;2024-01-30T03:59:44;13.30;;;9.23;;
42094;SDS011;27753;55.724;37.612;2024-01-30T04:02:10;15.70;;;9.77;;
42094;SDS011;27753;55.724;37.612;2024-01-30T04:04:37;12.27;;;9.43;;
42094;SDS011;27753;55.724;37.612;2024-01-30T04:07:03;14.80;;;8.73;;
42094;SDS011;27753;55.724;37.612;2024-01-30T04:09:29;13.68;;;9.10;;
42094;SDS011;27753;55.724;37.612;2024-01-30T04:11:54;14.32;;;8.38;;
42094;SDS011;27753;55.724;37.612;2024-01-30T04:14:20;14.15;;;9.48;;
42094;SDS011;27753;55.724;37.612;2024-01-30T04:16:46;12.25;;;9.15;;
42094;SDS011;27753;55.724;37.612;2024-01-30T04:19:12;15.25;;;9.27;;
42094;SDS011;27753;55.724;37.612;2024-01-30T04:21:38;12.02;;;6.97;;
42094;SDS011;27753;55.724;37.612;2024-01-30T04:24:04;14.00;;;9.48;;
42094;SDS011;27753;55.724;37.612;2024-01-30T04:26:30;10.80;;;8.77;;
42094;SDS011;27753;55.724;37.612;2024-01-30T04:28:56;12.50;;;7.93;;
42094;SDS011;27753;55.724;37.612;2024-01-30T04:31:22;13.00;;;9.25;;
42094;SDS011;27753;55.724;37.612;2024-01-30T04:33:48;13.40;;;9.20;;
42094;SDS011;27753;55.724;37.612;2024-01-30T04:36:14;12.63;;;8.82;;
42094;SDS011;27753;55.724;37.612;2024-01-30T04:38:40;13.00;;;9.05;;
42094;SDS011;27753;55.724;37.612;2024-01-30T04:41:06;13.25;;;8.52;;
42094;SDS011;27753;55.724;37.612;2024-01-30T04:43:32;12.73;;;8.65;;
42094;SDS011;27753;55.724;37.612;2024-01-30T04:45:58;13.23;;;8.25;;
42094;SDS011;27753;55.724;37.612;2024-01-30T04:48:24;13.48;;;8.63;;
42094;SDS011;27753;55.724;37.612;2024-01-30T04:50:50;12.82;;;8.02;;
42094;SDS011;27753;55.724;37.612;2024-01-30T04:53:16;10.40;;;7.93;;
42094;SDS011;27753;55.724;37.612;2024-01-30T04:55:41;15.85;;;8.38;;
42094;SDS011;27753;55.724;37.612;2024-01-30T04:58:07;14.20;;;8.60;;
42094;SDS011;27753;55.724;37.612;2024-01-30T05:00:33;12.68;;;8.55;;
42094;SDS011;27753;55.724;37.612;2024-01-30T05:02:59;15.18;;;9.80;;
42094;SDS011;27753;55.724;37.612;2024-01-30T05:05:25;15.25;;;9.65;;
42094;SDS011;27753;55.724;37.612;2024-01-30T05:07:51;16.27;;;10.35;;
42094;SDS011;27753;55.724;37.612;2024-01-30T05:10:16;14.45;;;9.52;;
42094;SDS011;27753;55.724;37.612;2024-01-30T05:12:43;12.93;;;7.72;;
42094;SDS011;27753;55.724;37.612;2024-01-30T05:15:09;16.15;;;9.38;;
42094;SDS011;27753;55.724;37.612;2024-01-30T05:17:35;15.98;;;9.38;;
42094;SDS011;27753;55.724;37.612;2024-01-30T05:20:01;13.50;;;9.57;;
42094;SDS011;27753;55.724;37.612;2024-01-30T05:22:26;14.13;;;8.90;;
42094;SDS011;27753;55.724;37.612;2024-01-30T05:24:52;15.88;;;9.18;;
42094;SDS011;27753;55.724;37.612;2024-01-30T05:27:18;14.27;;;8.13;;
42094;SDS011;27753;55.724;37.612;2024-01-30T05:29:44;16.45;;;8.57;;
42094;SDS011;27753;55.724;37.612;2024-01-30T05:32:11;17.48;;;9.00;;
42094;SDS011;27753;55.724;37.612;2024-01-30T05:34:36;14.45;;;7.80;;
42094;SDS011;27753;55.724;37.612;2024-01-30T05:37:03;16.50;;;9.07;;
42094;SDS011;27753;55.724;37.612;2024-01-30T05:39:29;14.83;;;10.63;;
42094;SDS011;27753;55.724;37.612;2024-01-30T05:41:58;19.50;;;11.77;;
42094;SDS011;27753;55.724;37.612;2024-01-30T05:44:24;15.27;;;10.55;;
42094;SDS011;27753;55.724;37.612;2024-01-30T05:46:50;18.45;;;10.50;;
42094;SDS011;27753;55.724;37.612;2024-01-30T05:49:16;15.82;;;10.52;;
42094;SDS011;27753;55.724;37.612;2024-01-30T05:51:42;16.60;;;11.40;;
42094;SDS011;27753;55.724;37.612;2024-01-30T05:54:08;18.92;;;10.30;;
42094;SDS011;27753;55.724;37.612;2024-01-30T05:56:33;14.20;;;9.98;;
42094;SDS011;27753;55.724;37.612;2024-01-30T05:58:59;14.73;;;10.18;;
42094;SDS011;27753;55.724;37.612;2024-01-30T06:01:25;17.83;;;10.90;;
42094;SDS011;27753;55.724;37.612;2024-01-30T06:03:51;14.40;;;9.10;;
42094;SDS011;27753;55.724;37.612;2024-01-30T06:06:17;20.48;;;11.98;;
42094;SDS011;27753;55.724;37.612;2024-01-30T06:08:43;15.82;;;10.50;;
42094;SDS011;27753;55.724;37.612;2024-01-30T06:11:10;16.45;;;10.60;;
42094;SDS011;27753;55.724;37.612;2024-01-30T06:13:37;16.40;;;11.52;;
42094;SDS011;27753;55.724;37.612;2024-01-30T06:16:03;19.42;;;11.32;;
42094;SDS011;27753;55.724;37.612;2024-01-30T06:20:57;23.75;;;14.18;;
42094;SDS011;27753;55.724;37.612;2024-01-30T06:23:23;18.05;;;12.13;;
42094;SDS011;27753;55.724;37.612;2024-01-30T06:25:49;21.20;;;12.25;;
42094;SDS011;27753;55.724;37.612;2024-01-30T06:28:15;19.40;;;11.77;;
42094;SDS011;27753;55.724;37.612;2024-01-30T06:30:41;14.98;;;10.32;;
42094;SDS011;27753;55.724;37.612;2024-01-30T06:33:07;14.80;;;9.88;;
42094;SDS011;27753;55.724;37.612;2024-01-30T06:35:33;16.45;;;11.02;;
42094;SDS011;27753;55.724;37.612;2024-01-30T06:40:26;17.25;;;10.90;;
42094;SDS011;27753;55.724;37.612;2024-01-30T06:42:53;73.18;;;19.10;;
42094;SDS011;27753;55.724;37.612;2024-01-30T06:45:19;47.28;;;17.30;;
42094;SDS011;27753;55.724;37.612;2024-01-30T06:47:45;80.13;;;21.70;;
42094;SDS011;27753;55.724;37.612;2024-01-30T06:50:11;15.45;;;11.73;;
42094;SDS011;27753;55.724;37.612;2024-01-30T06:52:37;18.88;;;12.38;;
42094;SDS011;27753;55.724;37.612;2024-01-30T06:55:03;38.80;;;16.25;;
42094;SDS011;27753;55.724;37.612;2024-01-30T06:57:30;20.98;;;11.90;;
42094;SDS011;27753;55.724;37.612;2024-01-30T06:59:56;19.42;;;12.88;;
42094;SDS011;27753;55.724;37.612;2024-01-30T07:02:22;14.88;;;9.93;;
42094;SDS011;27753;55.724;37.612;2024-01-30T07:04:48;28.77;;;12.68;;
42094;SDS011;27753;55.724;37.612;2024-01-30T07:07:14;24.17;;;11.00;;
42094;SDS011;27753;55.724;37.612;2024-01-30T07:09:41;18.85;;;12.27;;
42094;SDS011;27753;55.724;37.612;2024-01-30T07:12:07;20.55;;;12.30;;
42094;SDS011;27753;55.724;37.612;2024-01-30T07:14:33;16.50;;;11.88;;
42094;SDS011;27753;55.724;37.612;2024-01-30T07:17:00;23.98;;;13.38;;
42094;SDS011;27753;55.724;37.612;2024-01-30T07:19:26;19.20;;;11.38;;
42094;SDS011;27753;55.724;37.612;2024-01-30T07:21:52;21.35;;;12.02;;
42094;SDS011;27753;55.724;37.612;2024-01-30T07:24:19;18.15;;;12.55;;
42094;SDS011;27753;55.724;37.612;2024-01-30T07:26:45;40.70;;;16.25;;
42094;SDS011;27753;55.724;37.612;2024-01-30T07:29:11;21.90;;;12.00;;
42094;SDS011;27753;55.724;37.612;2024-01-30T07:31:37;17.23;;;11.77;;
42094;SDS011;27753;55.724;37.612;2024-01-30T07:34:03;20.45;;;12.40;;
42094;SDS011;27753;55.724;37.612;2024-01-30T07:36:30;18.35;;;9.18;;
42094;SDS011;27753;55.724;37.612;2024-01-30T07:38:56;23.40;;;11.57;;
42094;SDS011;27753;55.724;37.612;2024-01-30T07:41:22;19.65;;;12.10;;
42094;SDS011;27753;55.724;37.612;2024-01-30T07:46:16;17.95;;;11.05;;
42094;SDS011;27753;55.724;37.612;2024-01-30T07:48:42;18.25;;;11.80;;
42094;SDS011;27753;55.724;37.612;2024-01-30T07:51:08;19.50;;;12.15;;
42094;SDS011;27753;55.724;37.612;2024-01-30T07:53:34;20.17;;;12.77;;
42094;SDS011;27753;55.724;37.612;2024-01-30T07:56:00;21.58;;;12.85;;
42094;SDS011;27753;55.724;37.612;2024-01-30T07:58:26;20.67;;;11.32;;
42094;SDS011;27753;55.724;37.612;2024-01-30T08:00:52;20.33;;;11.75;;
42094;SDS011;27753;55.724;37.612;2024-01-30T08:03:18;21.77;;;11.68;;
42094;SDS011;27753;55.724;37.612;2024-01-30T08:05:45;21.95;;;12.68;;
42094;SDS011;27753;55.724;37.612;2024-01-30T08:08:11;17.33;;;12.40;;
42094;SDS011;27753;55.724;37.612;2024-01-30T08:10:37;20.50;;;13.77;;
42094;SDS011;27753;55.724;37.612;2024-01-30T08:13:03;20.88;;;12.02;;
42094;SDS011;27753;55.724;37.612;2024-01-30T08:15:29;20.00;;;12.35;;
42094;SDS011;27753;55.724;37.612;2024-01-30T08:17:55;23.98;;;13.25;;
42094;SDS011;27753;55.724;37.612;2024-01-30T08:20:23;22.67;;;12.68;;
42094;SDS011;27753;55.724;37.612;2024-01-30T08:22:49;26.83;;;12.32;;
42094;SDS011;27753;55.724;37.612;2024-01-30T08:25:16;17.98;;;13.65;;
42094;SDS011;27753;55.724;37.612;2024-01-30T08:27:42;19.55;;;12.10;;
42094;SDS011;27753;55.724;37.612;2024-01-30T08:30:11;19.05;;;13.25;;
42094;SDS011;27753;55.724;37.612;2024-01-30T08:32:37;19.60;;;12.77;;
42094;SDS011;27753;55.724;37.612;2024-01-30T08:35:03;21.50;;;14.30;;
42094;SDS011;27753;55.724;37.612;2024-01-30T08:37:30;20.25;;;12.90;;
42094;SDS011;27753;55.724;37.612;2024-01-30T08:39:56;23.95;;;14.70;;
42094;SDS011;27753;55.724;37.612;2024-01-30T08:42:22;18.83;;;12.98;;
42094;SDS011;27753;55.724;37.612;2024-01-30T08:44:49;18.60;;;12.48;;
42094;SDS011;27753;55.724;37.612;2024-01-30T08:47:17;22.73;;;11.48;;
42094;SDS011;27753;55.724;37.612;2024-01-30T08:49:43;22.13;;;14.80;;
42094;SDS011;27753;55.724;37.612;2024-01-30T08:52:12;19.00;;;13.02;;
42094;SDS011;27753;55.724;37.612;2024-01-30T08:54:38;24.15;;;13.65;;
42094;SDS011;27753;55.724;37.612;2024-01-30T08:57:05;23.40;;;12.90;;
42094;SDS011;27753;55.724;37.612;2024-01-30T08:59:31;22.17;;;13.00;;
42094;SDS011;27753;55.724;37.612;2024-01-30T09:01:57;23.75;;;12.85;;
42094;SDS011;27753;55.724;37.612;2024-01-30T09:04:24;21.40;;;14.07;;
42094;SDS011;27753;55.724;37.612;2024-01-30T09:06:50;19.70;;;12.60;;
42094;SDS011;27753;55.724;37.612;2024-01-30T09:09:17;21.02;;;14.15;;
42094;SDS011;27753;55.724;37.612;2024-01-30T09:11:43;19.90;;;12.98;;
42094;SDS011;27753;55.724;37.612;2024-01-30T09:14:09;23.20;;;13.23;;
42094;SDS011;27753;55.724;37.612;2024-01-30T09:16:36;18.40;;;11.20;;
42094;SDS011;27753;55.724;37.612;2024-01-30T09:19:03;19.83;;;13.00;;
42094;SDS011;27753;55.724;37.612;2024-01-30T09:21:29;20.35;;;13.40;;
42094;SDS011;27753;55.724;37.612;2024-01-30T09:24:00;23.17;;;13.70;;
42094;SDS011;27753;55.724;37.612;2024-01-30T09:26:27;17.75;;;14.05;;
42094;SDS011;27753;55.724;37.612;2024-01-30T09:28:53;24.00;;;15.25;;
42094;SDS011;27753;55.724;37.612;2024-01-30T09:31:19;18.75;;;12.32;;
42094;SDS011;27753;55.724;37.612;2024-01-30T09:33:45;25.27;;;13.95;;
42094;SDS011;27753;55.724;37.612;2024-01-30T09:36:13;20.38;;;12.75;;
42094;SDS011;27753;55.724;37.612;2024-01-30T09:38:43;16.98;;;12.63;;
42094;SDS011;27753;55.724;37.612;2024-01-30T09:41:12;18.10;;;12.02;;
42094;SDS011;27753;55.724;37.612;2024-01-30T09:43:38;24.92;;;14.23;;
42094;SDS011;27753;55.724;37.612;2024-01-30T09:46:05;26.27;;;13.63;;
42094;SDS011;27753;55.724;37.612;2024-01-30T09:48:32;21.98;;;12.57;;
42094;SDS011;27753;55.724;37.612;2024-01-30T09:50:58;19.58;;;12.65;;
42094;SDS011;27753;55.724;37.612;2024-01-30T09:53:24;21.70;;;14.90;;
42094;SDS011;27753;55.724;37.612;2024-01-30T09:55:51;21.30;;;12.40;;
42094;SDS011;27753;55.724;37.612;2024-01-30T09:58:17;19.50;;;11.70;;
42094;SDS011;27753;55.724;37.612;2024-01-30T10:00:43;17.35;;;12.65;;
42094;SDS011;27753;55.724;37.612;2024-01-30T10:03:09;20.98;;;15.30;;
42094;SDS011;27753;55.724;37.612;2024-01-30T10:05:35;21.58;;;12.82;;
42094;SDS011;27753;55.724;37.612;2024-01-30T10:08:07;21.75;;;12.70;;
42094;SDS011;27753;55.724;37.612;2024-01-30T10:10:33;24.92;;;13.73;;
42094;SDS011;27753;55.724;37.612;2024-01-30T10:13:02;21.52;;;14.25;;
42094;SDS011;27753;55.724;37.612;2024-01-30T10:15:28;21.10;;;13.93;;
42094;SDS011;27753;55.724;37.612;2024-01-30T10:17:54;24.70;;;13.52;;
42094;SDS011;27753;55.724;37.612;2024-01-30T10:20:21;23.90;;;14.07;;
42094;SDS011;27753;55.724;37.612;2024-01-30T10:22:47;20.75;;;12.80;;
42094;SDS011;27753;55.724;37.612;2024-01-30T10:25:14;24.23;;;13.60;;
42094;SDS011;27753;55.724;37.612;2024-01-30T10:27:41;20.65;;;12.77;;
42094;SDS011;27753;55.724;37.612;2024-01-30T10:30:07;22.30;;;15.02;;
42094;SDS011;27753;55.724;37.612;2024-01-30T10:32:33;20.65;;;13.05;;
42094;SDS011;27753;55.724;37.612;2024-01-30T10:34:59;22.60;;;13.05;;
42094;SDS011;27753;55.724;37.612;2024-01-30T10:37:26;24.73;;;14.55;;
42094;SDS011;27753;55.724;37.612;2024-01-30T10:39:53;20.10;;;13.02;;
42094;SDS011;27753;55.724;37.612;2024-01-30T10:42:23;18.05;;;13.07;;
42094;SDS011;27753;55.724;37.612;2024-01-30T10:47:21;19.73;;;12.52;;
42094;SDS011;27753;55.724;37.612;2024-01-30T10:49:48;24.52;;;12.50;;
42094;SDS011;27753;55.724;37.612;2024-01-30T10:52:15;23.15;;;13.02;;
42094;SDS011;27753;55.724;37.612;2024-01-30T10:57:08;16.88;;;11.05;;
42094;SDS011;27753;55.724;37.612;2024-01-30T10:59:36;19.33;;;12.80;;
42094;SDS011;27753;55.724;37.612;2024-01-30T11:02:02;17.65;;;13.20;;
42094;SDS011;27753;55.724;37.612;2024-01-30T11:04:35;18.35;;;11.45;;
42094;SDS011;27753;55.724;37.612;2024-01-30T11:07:01;21.92;;;13.18;;
42094;SDS011;27753;55.724;37.612;2024-01-30T11:09:29;22.40;;;12.88;;
42094;SDS011;27753;55.724;37.612;2024-01-30T11:11:58;19.60;;;13.80;;
42094;SDS011;27753;55.724;37.612;2024-01-30T11:14:25;18.08;;;13.05;;
42094;SDS011;27753;55.724;37.612;2024-01-30T11:16:51;20.88;;;14.05;;
42094;SDS011;27753;55.724;37.612;2024-01-30T11:19:27;27.33;;;14.38;;
42094;SDS011;27753;55.724;37.612;2024-01-30T11:21:53;20.40;;;13.43;;
42094;SDS011;27753;55.724;37.612;2024-01-30T11:24:21;21.52;;;13.50;;
42094;SDS011;27753;55.724;37.612;2024-01-30T11:26:48;19.75;;;12.63;;
42094;SDS011;27753;55.724;37.612;2024-01-30T11:29:16;24.60;;;14.27;;
42094;SDS011;27753;55.724;37.612;2024-01-30T11:31:53;21.83;;;14.15;;
42094;SDS011;27753;55.724;37.612;2024-01-30T11:34:19;25.95;;;15.95;;
42094;SDS011;27753;55.724;37.612;2024-01-30T11:36:48;22.25;;;13.30;;
42094;SDS011;27753;55.724;37.612;2024-01-30T11:39:17;30.65;;;17.10;;
42094;SDS011;27753;55.724;37.612;2024-01-30T11:41:47;23.17;;;13.10;;
42094;SDS011;27753;55.724;37.612;2024-01-30T11:44:13;20.95;;;14.05;;
42094;SDS011;27753;55.724;37.612;2024-01-30T11:46:41;20.45;;;13.23;;
42094;SDS011;27753;55.724;37.612;2024-01-30T11:49:07;19.67;;;12.43;;
42094;SDS011;27753;55.724;37.612;2024-01-30T11:51:33;21.55;;;13.02;;
42094;SDS011;27753;55.724;37.612;2024-01-30T11:53:59;23.23;;;12.57;;
42094;SDS011;27753;55.724;37.612;2024-01-30T11:56:25;23.20;;;13.35;;
42094;SDS011;27753;55.724;37.612;2024-01-30T11:58:52;17.88;;;13.48;;
42094;SDS011;27753;55.724;37.612;2024-01-30T12:01:18;21.30;;;13.23;;
42094;SDS011;27753;55.724;37.612;2024-01-30T12:03:50;17.48;;;12.13;;
42094;SDS011;27753;55.724;37.612;2024-01-30T12:06:17;26.40;;;14.30;;
42094;SDS011;27753;55.724;37.612;2024-01-30T12:08:43;22.38;;;12.90;;
42094;SDS011;27753;55.724;37.612;2024-01-30T12:11:19;21.05;;;13.45;;
42094;SDS011;27753;55.724;37.612;2024-01-30T12:13:45;24.58;;;14.05;;
42094;SDS011;27753;55.724;37.612;2024-01-30T12:16:12;22.95;;;13.43;;
42094;SDS011;27753;55.724;37.612;2024-01-30T12:18:38;17.05;;;11.60;;
42094;SDS011;27753;55.724;37.612;2024-01-30T12:21:04;23.65;;;14.27;;
42094;SDS011;27753;55.724;37.612;2024-01-30T12:23:31;20.37;;;12.70;;
42094;SDS011;27753;55.724;37.612;2024-01-30T12:25:57;19.83;;;12.77;;
42094;SDS011;27753;55.724;37.612;2024-01-30T12:28:24;21.30;;;13.38;;
42094;SDS011;27753;55.724;37.612;2024-01-30T12:30:50;22.63;;;13.52;;
42094;SDS011;27753;55.724;37.612;2024-01-30T12:33:16;19.88;;;13.70;;
42094;SDS011;27753;55.724;37.612;2024-01-30T12:35:46;19.80;;;13.15;;
42094;SDS011;27753;55.724;37.612;2024-01-30T12:38:15;21.50;;;13.45;;
42094;SDS011;27753;55.724;37.612;2024-01-30T12:40:41;18.02;;;13.02;;
42094;SDS011;27753;55.724;37.612;2024-01-30T12:43:07;16.55;;;11.48;;
42094;SDS011;27753;55.724;37.612;2024-01-30T12:45:33;27.23;;;14.30;;
42094;SDS011;27753;55.724;37.612;2024-01-30T12:48:00;27.00;;;13.88;;
42094;SDS011;27753;55.724;37.612;2024-01-30T12:50:26;23.55;;;13.75;;
42094;SDS011;27753;55.724;37.612;2024-01-30T12:52:52;20.00;;;12.48;;
42094;SDS011;27753;55.724;37.612;2024-01-30T12:55:18;20.95;;;13.35;;
42094;SDS011;27753;55.724;37.612;2024-01-30T12:57:44;23.40;;;13.82;;
42094;SDS011;27753;55.724;37.612;2024-01-30T13:00:11;19.25;;;13.38;;
42094;SDS011;27753;55.724;37.612;2024-01-30T13:02:37;22.25;;;14.98;;
42094;SDS011;27753;55.724;37.612;2024-01-30T13:05:03;21.13;;;13.68;;
42094;SDS011;27753;55.724;37.612;2024-01-30T13:07:29;21.00;;;15.63;;
42094;SDS011;27753;55.724;37.612;2024-01-30T13:09:59;46.03;;;20.40;;
42094;SDS011;27753;55.724;37.612;2024-01-30T13:12:28;27.42;;;14.50;;
42094;SDS011;27753;55.724;37.612;2024-01-30T13:14:54;23.60;;;14.82;;
42094;SDS011;27753;55.724;37.612;2024-01-30T13:17:20;23.02;;;14.10;;
42094;SDS011;27753;55.724;37.612;2024-01-30T13:19:46;25.50;;;15.60;;
42094;SDS011;27753;55.724;37.612;2024-01-30T13:24:40;22.20;;;13.95;;
42094;SDS011;27753;55.724;37.612;2024-01-30T13:27:06;24.98;;;15.80;;
42094;SDS011;27753;55.724;37.612;2024-01-30T13:29:32;27.73;;;15.80;;
42094;SDS011;27753;55.724;37.612;2024-01-30T13:31:58;24.60;;;15.30;;
42094;SDS011;27753;55.724;37.612;2024-01-30T13:34:24;24.35;;;15.27;;
42094;SDS011;27753;55.724;37.612;2024-01-30T13:36:51;26.13;;;15.25;;
42094;SDS011;27753;55.724;37.612;2024-01-30T13:39:17;29.95;;;15.43;;
42094;SDS011;27753;55.724;37.612;2024-01-30T13:41:43;28.77;;;15.43;;
42094;SDS011;27753;55.724;37.612;2024-01-30T13:44:09;26.48;;;14.23;;
42094;SDS011;27753;55.724;37.612;2024-01-30T13:46:35;25.55;;;14.10;;
42094;SDS011;27753;55.724;37.612;2024-01-30T13:49:02;26.38;;;14.45;;
42094;SDS011;27753;55.724;37.612;2024-01-30T13:51:28;25.92;;;14.05;;
42094;SDS011;27753;55.724;37.612;2024-01-30T13:53:54;27.15;;;15.10;;
42094;SDS011;27753;55.724;37.612;2024-01-30T13:56:20;26.20;;;14.35;;
42094;SDS011;27753;55.724;37.612;2024-01-30T13:58:49;22.88;;;14.95;;
42094;SDS011;27753;55.724;37.612;2024-01-30T14:01:16;24.55;;;13.20;;
42094;SDS011;27753;55.724;37.612;2024-01-30T14:03:42;24.33;;;15.10;;
42094;SDS011;27753;55.724;37.612;2024-01-30T14:06:08;22.92;;;15.13;;
42094;SDS011;27753;55.724;37.612;2024-01-30T14:08:34;22.17;;;13.80;;
42094;SDS011;27753;55.724;37.612;2024-01-30T14:11:00;22.92;;;12.50;;
42094;SDS011;27753;55.724;37.612;2024-01-30T14:13:27;26.20;;;15.23;;
42094;SDS011;27753;55.724;37.612;2024-01-30T14:15:53;25.13;;;16.15;;
42094;SDS011;27753;55.724;37.612;2024-01-30T14:18:19;20.40;;;12.40;;
42094;SDS011;27753;55.724;37.612;2024-01-30T14:20:45;28.80;;;14.75;;
42094;SDS011;27753;55.724;37.612;2024-01-30T14:23:11;29.67;;;15.40;;
42094;SDS011;27753;55.724;37.612;2024-01-30T14:25:37;28.10;;;16.98;;